sensor_id;sensor_type;location;lat;lon;timestamp;pressure;altitude;pressure_sealevel;temperature;humidity
20105;BME280;10212;42.714;23.310;2023-02-19T00:09:24;95459.94;;;5.17;65.77
20105;BME280;10212;42.714;23.310;2023-02-19T00:19:25;95448.34;;;5.71;63.46
20105;BME280;10212;42.714;23.310;2023-02-19T00:29:26;95435.69;;;5.85;63.05
20105;BME280;10212;42.714;23.310;2023-02-19T00:39:26;95425.66;;;5.90;62.72
20105;BME280;10212;42.714;23.310;2023-02-19T00:49:26;95414.34;;;5.83;62.53
20105;BME280;10212;42.714;23.310;2023-02-19T00:59:27;95408.88;;;5.61;63.44
20105;BME280;10212;42.714;23.310;2023-02-19T01:09:27;95421.19;;;5.42;63.90
20105;BME280;10212;42.714;23.310;2023-02-19T01:19:28;95417.31;;;5.13;65.04
20105;BME280;10212;42.714;23.310;2023-02-19T01:29:28;95416.13;;;4.90;66.07
20105;BME280;10212;42.714;23.310;2023-02-19T01:39:29;95424.34;;;4.77;66.62
20105;BME280;10212;42.714;23.310;2023-02-19T01:49:33;95443.63;;;4.56;68.06
20105;BME280;10212;42.714;23.310;2023-02-19T01:59:36;95443.28;;;4.51;69.35
20105;BME280;10212;42.714;23.310;2023-02-19T02:09:37;95466.44;;;4.26;70.09
20105;BME280;10212;42.714;23.310;2023-02-19T02:40:22;95462.72;;;3.94;71.17
20105;BME280;10212;42.714;23.310;2023-02-19T02:50:36;95460.38;;;3.82;72.22
20105;BME280;10212;42.714;23.310;2023-02-19T03:00:38;95459.97;;;3.95;72.07
20105;BME280;10212;42.714;23.310;2023-02-19T03:11:09;95460.09;;;4.47;69.61
20105;BME280;10212;42.714;23.310;2023-02-19T03:21:30;95464.13;;;5.01;66.92
20105;BME280;10212;42.714;23.310;2023-02-19T03:51:50;95500.41;;;5.85;63.27
20105;BME280;10212;42.714;23.310;2023-02-19T04:01:55;95501.03;;;5.95;63.38
20105;BME280;10212;42.714;23.310;2023-02-19T04:11:57;95506.06;;;5.80;65.00
20105;BME280;10212;42.714;23.310;2023-02-19T04:21:59;95519.81;;;6.06;64.63
20105;BME280;10212;42.714;23.310;2023-02-19T04:32:00;95522.41;;;6.22;64.26
20105;BME280;10212;42.714;23.310;2023-02-19T04:42:01;95517.16;;;6.56;63.38
20105;BME280;10212;42.714;23.310;2023-02-19T04:52:02;95516.06;;;6.82;62.88
20105;BME280;10212;42.714;23.310;2023-02-19T05:02:02;95519.44;;;6.91;62.55
20105;BME280;10212;42.714;23.310;2023-02-19T05:12:03;95528.81;;;6.92;61.58
20105;BME280;10212;42.714;23.310;2023-02-19T05:22:03;95533.72;;;5.96;64.72
20105;BME280;10212;42.714;23.310;2023-02-19T05:32:03;95558.25;;;5.34;66.49
20105;BME280;10212;42.714;23.310;2023-02-19T05:42:04;95573.53;;;5.10;68.14
20105;BME280;10212;42.714;23.310;2023-02-19T05:52:04;95571.28;;;5.24;68.08
20105;BME280;10212;42.714;23.310;2023-02-19T06:02:05;95582.56;;;5.91;64.75
20105;BME280;10212;42.714;23.310;2023-02-19T06:12:05;95601.06;;;6.30;63.41
20105;BME280;10212;42.714;23.310;2023-02-19T06:22:07;95610.75;;;6.36;63.27
20105;BME280;10212;42.714;23.310;2023-02-19T06:32:07;95612.69;;;6.50;62.11
20105;BME280;10212;42.714;23.310;2023-02-19T06:42:08;95615.09;;;6.77;60.89
20105;BME280;10212;42.714;23.310;2023-02-19T06:52:08;95619.69;;;7.07;60.73
20105;BME280;10212;42.714;23.310;2023-02-19T07:02:10;95623.50;;;7.28;60.36
20105;BME280;10212;42.714;23.310;2023-02-19T07:12:10;95622.41;;;7.54;60.81
20105;BME280;10212;42.714;23.310;2023-02-19T07:22:11;95614.31;;;7.80;60.81
20105;BME280;10212;42.714;23.310;2023-02-19T07:32:11;95599.94;;;8.16;60.80
20105;BME280;10212;42.714;23.310;2023-02-19T07:42:11;95590.28;;;8.64;58.84
20105;BME280;10212;42.714;23.310;2023-02-19T07:52:12;95585.38;;;9.14;57.69
20105;BME280;10212;42.714;23.310;2023-02-19T08:02:17;95586.16;;;9.67;56.00
20105;BME280;10212;42.714;23.310;2023-02-19T08:12:36;95589.19;;;10.15;53.72
20105;BME280;10212;42.714;23.310;2023-02-19T08:22:55;95580.88;;;10.55;51.72
20105;BME280;10212;42.714;23.310;2023-02-19T08:32:57;95576.03;;;10.80;50.59
20105;BME280;10212;42.714;23.310;2023-02-19T08:43:03;95578.41;;;11.11;50.07
20105;BME280;10212;42.714;23.310;2023-02-19T08:53:05;95551.41;;;11.39;50.21
20105;BME280;10212;42.714;23.310;2023-02-19T09:03:05;95539.22;;;11.73;49.44
20105;BME280;10212;42.714;23.310;2023-02-19T09:13:06;95519.31;;;11.99;49.37
20105;BME280;10212;42.714;23.310;2023-02-19T09:23:06;95513.94;;;12.21;48.67
20105;BME280;10212;42.714;23.310;2023-02-19T09:33:06;95523.38;;;12.29;48.87
20105;BME280;10212;42.714;23.310;2023-02-19T09:43:11;95510.84;;;12.58;48.46
20105;BME280;10212;42.714;23.310;2023-02-19T09:53:21;95498.63;;;13.05;47.77
20105;BME280;10212;42.714;23.310;2023-02-19T10:03:26;95479.59;;;13.30;46.37
20105;BME280;10212;42.714;23.310;2023-02-19T10:13:41;95450.59;;;13.24;45.06
20105;BME280;10212;42.714;23.310;2023-02-19T10:23:42;95433.69;;;13.20;44.29
20105;BME280;10212;42.714;23.310;2023-02-19T10:34:01;95407.84;;;13.31;44.12
20105;BME280;10212;42.714;23.310;2023-02-19T10:54:05;95361.16;;;13.79;42.79
20105;BME280;10212;42.714;23.310;2023-02-19T11:04:16;95341.28;;;13.90;42.60
20105;BME280;10212;42.714;23.310;2023-02-19T11:14:18;95318.00;;;14.00;41.71
20105;BME280;10212;42.714;23.310;2023-02-19T11:24:35;95297.22;;;14.17;41.62
20105;BME280;10212;42.714;23.310;2023-02-19T11:34:39;95274.16;;;14.38;40.59
20105;BME280;10212;42.714;23.310;2023-02-19T11:55:31;95248.47;;;14.59;38.88
20105;BME280;10212;42.714;23.310;2023-02-19T12:05:41;95229.38;;;15.06;37.67
20105;BME280;10212;42.714;23.310;2023-02-19T12:26:49;95185.94;;;15.52;36.53
20105;BME280;10212;42.714;23.310;2023-02-19T12:47:18;95144.72;;;15.82;35.50
20105;BME280;10212;42.714;23.310;2023-02-19T12:57:30;95120.09;;;16.00;35.43
20105;BME280;10212;42.714;23.310;2023-02-19T13:07:37;95099.47;;;16.09;35.20
20105;BME280;10212;42.714;23.310;2023-02-19T13:17:45;95092.31;;;16.04;34.58
20105;BME280;10212;42.714;23.310;2023-02-19T13:28:04;95068.56;;;16.16;34.52
20105;BME280;10212;42.714;23.310;2023-02-19T13:38:08;95047.72;;;16.66;33.92
20105;BME280;10212;42.714;23.310;2023-02-19T13:48:24;95053.25;;;16.70;33.71
20105;BME280;10212;42.714;23.310;2023-02-19T14:18:49;95026.31;;;16.23;34.66
20105;BME280;10212;42.714;23.310;2023-02-19T14:28:52;95006.22;;;16.56;34.38
20105;BME280;10212;42.714;23.310;2023-02-19T14:38:54;95005.59;;;17.11;33.34
20105;BME280;10212;42.714;23.310;2023-02-19T14:49:00;94994.47;;;17.26;33.10
20105;BME280;10212;42.714;23.310;2023-02-19T15:09:12;94984.34;;;16.33;37.19
20105;BME280;10212;42.714;23.310;2023-02-19T15:19:15;94986.53;;;16.02;37.91
20105;BME280;10212;42.714;23.310;2023-02-19T15:29:18;94988.63;;;15.71;39.11
20105;BME280;10212;42.714;23.310;2023-02-19T15:39:21;94998.63;;;15.39;39.65
20105;BME280;10212;42.714;23.310;2023-02-19T15:49:27;95014.84;;;15.07;40.73
20105;BME280;10212;42.714;23.310;2023-02-19T15:59:43;95026.22;;;14.71;41.93
20105;BME280;10212;42.714;23.310;2023-02-19T16:09:45;95031.00;;;14.27;43.09
20105;BME280;10212;42.714;23.310;2023-02-19T16:19:46;95040.50;;;13.85;43.94
20105;BME280;10212;42.714;23.310;2023-02-19T16:29:50;95049.00;;;13.56;44.86
20105;BME280;10212;42.714;23.310;2023-02-19T16:50:23;95088.97;;;13.14;45.30
20105;BME280;10212;42.714;23.310;2023-02-19T17:00:29;95098.91;;;12.86;45.50
20105;BME280;10212;42.714;23.310;2023-02-19T17:10:30;95104.75;;;12.63;45.98
20105;BME280;10212;42.714;23.310;2023-02-19T17:20:31;95117.63;;;12.39;46.14
20105;BME280;10212;42.714;23.310;2023-02-19T17:30:34;95147.16;;;12.46;45.45
20105;BME280;10212;42.714;23.310;2023-02-19T17:40:35;95147.94;;;12.21;46.09
20105;BME280;10212;42.714;23.310;2023-02-19T17:50:36;95155.03;;;12.07;46.07
20105;BME280;10212;42.714;23.310;2023-02-19T18:00:37;95159.91;;;11.97;45.93
20105;BME280;10212;42.714;23.310;2023-02-19T18:10:37;95184.88;;;11.86;45.77
20105;BME280;10212;42.714;23.310;2023-02-19T18:20:38;95201.41;;;11.79;46.19
20105;BME280;10212;42.714;23.310;2023-02-19T18:30:38;95199.44;;;11.68;46.86
20105;BME280;10212;42.714;23.310;2023-02-19T18:40:39;95210.66;;;11.75;46.54
20105;BME280;10212;42.714;23.310;2023-02-19T18:50:40;95216.66;;;11.82;46.52
20105;BME280;10212;42.714;23.310;2023-02-19T19:00:41;95237.53;;;11.89;46.72
20105;BME280;10212;42.714;23.310;2023-02-19T19:10:41;95261.88;;;11.83;47.38
20105;BME280;10212;42.714;23.310;2023-02-19T19:20:42;95272.41;;;11.49;48.86
20105;BME280;10212;42.714;23.310;2023-02-19T19:30:42;95285.88;;;11.32;50.11
20105;BME280;10212;42.714;23.310;2023-02-19T19:40:43;95279.09;;;11.25;50.27
20105;BME280;10212;42.714;23.310;2023-02-19T19:50:43;95293.75;;;11.19;49.72
20105;BME280;10212;42.714;23.310;2023-02-19T20:00:44;95313.22;;;11.30;49.80
20105;BME280;10212;42.714;23.310;2023-02-19T20:10:46;95324.03;;;11.47;49.83
20105;BME280;10212;42.714;23.310;2023-02-19T20:20:46;95334.28;;;11.42;49.48
20105;BME280;10212;42.714;23.310;2023-02-19T20:30:47;95346.75;;;11.26;50.70
20105;BME280;10212;42.714;23.310;2023-02-19T20:40:47;95346.13;;;11.17;51.86
20105;BME280;10212;42.714;23.310;2023-02-19T20:50:48;95367.59;;;10.92;52.99
20105;BME280;10212;42.714;23.310;2023-02-19T21:00:48;95373.34;;;10.74;54.28
20105;BME280;10212;42.714;23.310;2023-02-19T21:10:48;95374.69;;;10.56;55.04
20105;BME280;10212;42.714;23.310;2023-02-19T21:20:49;95372.03;;;10.43;56.24
20105;BME280;10212;42.714;23.310;2023-02-19T21:30:49;95372.97;;;10.28;56.71
20105;BME280;10212;42.714;23.310;2023-02-19T21:40:50;95387.63;;;10.29;56.93
20105;BME280;10212;42.714;23.310;2023-02-19T21:50:50;95393.19;;;10.26;56.72
20105;BME280;10212;42.714;23.310;2023-02-19T22:00:51;95405.97;;;10.14;57.75
20105;BME280;10212;42.714;23.310;2023-02-19T22:10:52;95417.38;;;10.06;57.27
20105;BME280;10212;42.714;23.310;2023-02-19T22:20:53;95429.16;;;10.02;57.71
20105;BME280;10212;42.714;23.310;2023-02-19T22:30:53;95443.88;;;9.88;58.24
20105;BME280;10212;42.714;23.310;2023-02-19T22:40:54;95462.06;;;9.81;58.56
20105;BME280;10212;42.714;23.310;2023-02-19T22:50:54;95476.47;;;9.77;58.68
20105;BME280;10212;42.714;23.310;2023-02-19T23:00:55;95464.50;;;9.61;59.01
20105;BME280;10212;42.714;23.310;2023-02-19T23:10:55;95455.97;;;9.45;59.86
20105;BME280;10212;42.714;23.310;2023-02-19T23:20:55;95450.19;;;9.28;60.62
20105;BME280;10212;42.714;23.310;2023-02-19T23:30:56;95455.16;;;9.23;61.04
20105;BME280;10212;42.714;23.310;2023-02-19T23:40:56;95457.25;;;9.12;61.96
20105;BME280;10212;42.714;23.310;2023-02-19T23:50:57;95461.97;;;9.02;62.92
